Terminal Aerodrome Forecast
Issued by NWS Melbourne, FL

Home | Current Version | Previous Version | Text Only | Print | Product List | Glossary On
Versions: 1 2 3 4 5 6 7 8 9 10 11 12 13 14
031
FTUS42 KMLB 102336
TAFVRB
TAF
KVRB 102336Z 1100/1124 28008KT P6SM FEW060
     FM110200 28007KT P6SM SKC
     FM111200 31005KT P6SM SKC=

USA.gov is the U.S. government's official web portal to all federal, state and local government web resources and services.